Terminal Aerodrome Forecast
Issued by NWS

Home | Current Version | Previous Version | Text Only | Print | Product List | Glossary On
Versions: 1 2 3 4 5 6 7 8 9 10 11 12 13 14 15 16 17
000
FTUS45 KRIW 160500
TAFPNA
TAF
KPNA 160523Z 1606/1706 28010G15KT P6SM BKN050
      TEMPO 1606/1608 BKN025
     FM160900 30007KT P6SM VCFG FEW008 SCT050
     FM161600 29007KT P6SM FEW050
     FM162000 30010G15KT P6SM SCT050 BKN100
     FM170200 29007KT P6SM SCT060
      AMD LTD TO CLD VIS AND WIND=

USA.gov is the U.S. government's official web portal to all federal, state and local government web resources and services.